Time;durP1;ratioP1;P1;durP2;ratioP2;P2;SDS_P1;SDS_P2;PMS_P1;PMS_P2;Temp;Humidity;BMP_temperature;BMP_pressure;BME280_temperature;BME280_humidity;BME280_pressure;Samples;Min_cycle;Max_cycle;Signal;HPM_P1;HPM_P2
2021/04/28 00:01:56;;;;;;;6.13;4.40;;;;;;;;;;4934020;29;20110;-74
2021/04/28 00:04:22;;;;;;;6.13;4.03;;;;;;;;;;4935232;29;20055;-74
2021/04/28 00:06:49;;;;;;;8.07;5.10;;;;;;;;;;4934326;29;20056;-74
2021/04/28 00:09:19;;;;;;;5.82;4.60;;;;;;;;;;4918574;29;20110;-74
2021/04/28 00:11:45;;;;;;;7.72;6.07;;;;;;;;;;4935070;29;20102;-74
2021/04/28 00:14:12;;;;;;;6.60;4.60;;;;;;;;;;4934889;29;20148;-74
2021/04/28 00:16:38;;;;;;;6.07;4.65;;;;;;;;;;4933332;29;20056;-74
2021/04/28 00:19:05;;;;;;;5.25;4.45;;;;;;;;;;4933767;29;20507;-73
2021/04/28 00:21:31;;;;;;;6.90;5.68;;;;;;;;;;4935007;29;20130;-74
2021/04/28 00:23:57;;;;;;;7.57;4.82;;;;;;;;;;4934803;29;20051;-74
2021/04/28 00:26:23;;;;;;;7.38;5.13;;;;;;;;;;4917228;29;20150;-74
2021/04/28 00:28:49;;;;;;;7.18;4.40;;;;;;;;;;4934642;29;20043;-74
2021/04/28 00:31:16;;;;;;;7.55;5.07;;;;;;;;;;4934322;29;20051;-74
2021/04/28 00:33:42;;;;;;;7.10;4.95;;;;;;;;;;4934572;29;20506;-74
2021/04/28 00:36:08;;;;;;;7.00;5.00;;;;;;;;;;4933888;29;20063;-74
2021/04/28 00:38:34;;;;;;;6.97;5.13;;;;;;;;;;4933344;29;20566;-74
2021/04/28 00:41:05;;;;;;;6.82;4.32;;;;;;;;;;4917779;29;20063;-73
2021/04/28 00:43:31;;;;;;;8.02;5.30;;;;;;;;;;4917938;29;20055;-73
2021/04/28 00:45:57;;;;;;;7.60;5.05;;;;;;;;;;4917111;29;20091;-74
2021/04/28 00:48:23;;;;;;;6.25;4.78;;;;;;;;;;4934111;29;20565;-74
2021/04/28 00:50:51;;;;;;;7.47;5.35;;;;;;;;;;4933533;29;20086;-74
2021/04/28 00:53:20;;;;;;;6.70;5.07;;;;;;;;;;4933388;29;20107;-74
2021/04/28 00:55:46;;;;;;;6.53;4.63;;;;;;;;;;4932836;29;20266;-74
2021/04/28 00:58:12;;;;;;;8.70;5.65;;;;;;;;;;4933207;29;20098;-73
2021/04/28 01:00:39;;;;;;;7.30;5.03;;;;;;;;;;4933219;29;20050;-73
2021/04/28 01:03:05;;;;;;;7.65;5.45;;;;;;;;;;4933274;29;20051;-73
2021/04/28 01:05:32;;;;;;;7.82;5.45;;;;;;;;;;4932682;29;20455;-73
2021/04/28 01:07:58;;;;;;;8.07;5.45;;;;;;;;;;4933282;29;20077;-73
2021/04/28 01:10:26;;;;;;;7.10;4.85;;;;;;;;;;4932942;29;20087;-73
2021/04/28 01:12:53;;;;;;;10.05;5.28;;;;;;;;;;4933196;29;20055;-73
2021/04/28 01:15:22;;;;;;;7.60;5.82;;;;;;;;;;4931871;29;20090;-74
2021/04/28 01:17:48;;;;;;;8.35;5.25;;;;;;;;;;4917674;29;20052;-73
2021/04/28 01:20:16;;;;;;;9.18;5.50;;;;;;;;;;4933979;29;20422;-73
2021/04/28 01:22:43;;;;;;;10.43;6.25;;;;;;;;;;4934201;29;20116;-74
2021/04/28 01:25:12;;;;;;;9.25;6.00;;;;;;;;;;4933938;29;20111;-73
2021/04/28 01:27:40;;;;;;;11.30;5.35;;;;;;;;;;4934086;29;20060;-73
2021/04/28 01:30:08;;;;;;;9.13;5.47;;;;;;;;;;4917141;29;20103;-73
2021/04/28 01:32:34;;;;;;;12.13;5.53;;;;;;;;;;4917515;29;20122;-73
2021/04/28 01:35:01;;;;;;;8.80;5.75;;;;;;;;;;4917484;29;20134;-74
2021/04/28 01:37:29;;;;;;;9.13;5.80;;;;;;;;;;4916728;29;20400;-73
2021/04/28 01:39:55;;;;;;;8.40;5.10;;;;;;;;;;4917103;29;20043;-73
2021/04/28 01:42:21;;;;;;;8.80;5.47;;;;;;;;;;4932901;29;20159;-73
2021/04/28 01:44:48;;;;;;;7.40;5.65;;;;;;;;;;4925295;29;20090;-73
2021/04/28 01:47:14;;;;;;;12.23;5.40;;;;;;;;;;4935775;29;20484;-73
2021/04/28 01:49:42;;;;;;;6.00;5.13;;;;;;;;;;4920706;29;20134;-73
2021/04/28 01:52:08;;;;;;;9.68;5.97;;;;;;;;;;4920735;29;20051;-74
2021/04/28 01:54:34;;;;;;;10.65;5.88;;;;;;;;;;4920710;29;20080;-74
2021/04/28 01:57:00;;;;;;;7.40;5.25;;;;;;;;;;4936887;29;20055;-74
2021/04/28 01:59:28;;;;;;;7.72;5.80;;;;;;;;;;4920655;29;20407;-73
2021/04/28 02:01:56;;;;;;;9.30;5.85;;;;;;;;;;4920509;29;20064;-73
2021/04/28 02:04:22;;;;;;;6.53;5.00;;;;;;;;;;4936201;29;20058;-73
2021/04/28 02:06:49;;;;;;;7.55;5.28;;;;;;;;;;4919831;29;20051;-73
2021/04/28 02:09:15;;;;;;;9.45;5.18;;;;;;;;;;4904631;29;20098;-73
2021/04/28 02:11:42;;;;;;;10.27;5.90;;;;;;;;;;4936256;29;20134;-73
2021/04/28 02:14:11;;;;;;;7.28;5.47;;;;;;;;;;4920312;29;20048;-73
2021/04/28 02:16:37;;;;;;;10.38;5.85;;;;;;;;;;4918277;29;20091;-73
2021/04/28 02:19:06;;;;;;;11.95;5.90;;;;;;;;;;4904255;29;20052;-73
2021/04/28 02:21:32;;;;;;;8.57;5.68;;;;;;;;;;4904582;29;20110;-73
2021/04/28 02:23:58;;;;;;;7.18;5.22;;;;;;;;;;4919984;29;20155;-73
2021/04/28 02:26:24;;;;;;;11.02;5.43;;;;;;;;;;4903637;29;20142;-73
2021/04/28 02:28:50;;;;;;;9.00;5.47;;;;;;;;;;4936896;29;20048;-73
2021/04/28 02:31:17;;;;;;;8.57;5.72;;;;;;;;;;4936711;29;20496;-73
2021/04/28 02:33:43;;;;;;;10.13;5.68;;;;;;;;;;4935722;29;20067;-73
2021/04/28 02:36:09;;;;;;;8.68;5.20;;;;;;;;;;4919166;29;20055;-73
2021/04/28 02:38:56;;;;;;;6.60;5.03;;;;;;;;;;4935453;29;20474;-73
2021/04/28 02:41:23;;;;;;;6.60;5.35;;;;;;;;;;4935395;29;20052;-73
2021/04/28 02:43:50;;;;;;;7.90;5.70;;;;;;;;;;4935843;29;20329;-73
2021/04/28 02:46:16;;;;;;;9.40;5.38;;;;;;;;;;4934860;29;20107;-73
2021/04/28 02:48:43;;;;;;;8.05;5.68;;;;;;;;;;4935292;29;20052;-73
2021/04/28 02:51:10;;;;;;;8.70;5.22;;;;;;;;;;4935313;29;20470;-73
2021/04/28 02:53:36;;;;;;;6.57;5.65;;;;;;;;;;4935392;29;20060;-73
2021/04/28 02:56:02;;;;;;;11.20;5.90;;;;;;;;;;4934444;29;20051;-73
2021/04/28 02:58:29;;;;;;;9.98;6.47;;;;;;;;;;4920293;29;20107;-73
2021/04/28 03:00:56;;;;;;;10.18;6.00;;;;;;;;;;4936452;29;20056;-73
2021/04/28 03:03:22;;;;;;;8.77;6.07;;;;;;;;;;4919580;29;20130;-73
2021/04/28 03:05:52;;;;;;;9.30;5.35;;;;;;;;;;4918871;29;20087;-73
2021/04/28 03:08:19;;;;;;;7.95;5.70;;;;;;;;;;4903711;29;20090;-73
2021/04/28 03:10:47;;;;;;;8.60;5.47;;;;;;;;;;4919733;29;20075;-73
2021/04/28 03:13:13;;;;;;;8.18;5.00;;;;;;;;;;4919349;29;20073;-73
2021/04/28 03:15:39;;;;;;;7.60;5.70;;;;;;;;;;4902964;29;20418;-73
2021/04/28 03:18:05;;;;;;;7.57;5.78;;;;;;;;;;4934902;29;20063;-73
2021/04/28 03:20:32;;;;;;;9.05;5.70;;;;;;;;;;4903498;29;20048;-73
2021/04/28 03:22:58;;;;;;;10.98;6.15;;;;;;;;;;4935008;29;20052;-73
2021/04/28 03:25:24;;;;;;;10.27;6.38;;;;;;;;;;4918238;29;20055;-73
2021/04/28 03:27:50;;;;;;;10.05;6.93;;;;;;;;;;4936017;29;20060;-73
2021/04/28 03:30:17;;;;;;;8.93;5.82;;;;;;;;;;4935799;29;20095;-73
2021/04/28 03:32:43;;;;;;;16.55;7.00;;;;;;;;;;4936050;29;20111;-73
2021/04/28 03:35:10;;;;;;;9.55;6.32;;;;;;;;;;4935830;29;20103;-73
2021/04/28 03:37:37;;;;;;;8.10;5.75;;;;;;;;;;4934145;29;20110;-73
2021/04/28 03:40:06;;;;;;;9.70;6.15;;;;;;;;;;4968423;23;20465;-69
2021/04/28 03:42:32;;;;;;;11.48;6.60;;;;;;;;;;4954644;29;20516;-69
2021/04/28 03:44:58;;;;;;;8.73;5.70;;;;;;;;;;4955008;29;20086;-69
2021/04/28 03:47:24;;;;;;;8.48;6.05;;;;;;;;;;4954325;29;20047;-69
2021/04/28 03:49:50;;;;;;;9.27;6.18;;;;;;;;;;4945846;29;20141;-71
2021/04/28 03:52:17;;;;;;;11.02;6.50;;;;;;;;;;4935885;29;20051;-71
2021/04/28 03:54:43;;;;;;;9.63;6.32;;;;;;;;;;4935910;29;20051;-69
2021/04/28 03:57:10;;;;;;;7.82;6.13;;;;;;;;;;4918223;29;20422;-69
2021/04/28 03:59:36;;;;;;;10.20;6.18;;;;;;;;;;4934601;29;20048;-68
2021/04/28 04:02:03;;;;;;;9.00;6.45;;;;;;;;;;4934523;29;20138;-70
2021/04/28 04:04:31;;;;;;;11.55;5.88;;;;;;;;;;4935710;29;20515;-70
2021/04/28 04:06:57;;;;;;;8.57;6.53;;;;;;;;;;4934395;29;20087;-70
2021/04/28 04:09:23;;;;;;;8.35;6.25;;;;;;;;;;4938912;29;20646;-70
2021/04/28 04:11:49;;;;;;;7.15;5.75;;;;;;;;;;4936137;29;20063;-70
2021/04/28 04:14:15;;;;;;;9.40;6.00;;;;;;;;;;4935626;29;20111;-69
2021/04/28 04:16:42;;;;;;;10.38;6.28;;;;;;;;;;4935064;29;20098;-69
2021/04/28 04:19:08;;;;;;;11.25;6.03;;;;;;;;;;4935288;29;20048;-69
2021/04/28 04:21:34;;;;;;;10.30;6.53;;;;;;;;;;4935372;29;20574;-70
2021/04/28 04:24:00;;;;;;;7.68;6.10;;;;;;;;;;4935121;29;20052;-70
2021/04/28 04:26:27;;;;;;;10.68;6.50;;;;;;;;;;4934426;29;20059;-69
2021/04/28 04:28:53;;;;;;;10.07;6.28;;;;;;;;;;4934812;29;20076;-69
2021/04/28 04:31:30;;;;;;;11.13;6.68;;;;;;;;;;4934569;29;20467;-69
2021/04/28 04:33:57;;;;;;;11.93;7.18;;;;;;;;;;4905374;29;20052;-70
2021/04/28 04:36:25;;;;;;;13.05;7.35;;;;;;;;;;4923440;29;20044;-71
2021/04/28 04:38:51;;;;;;;12.75;6.35;;;;;;;;;;4923233;29;20130;-69
2021/04/28 04:41:18;;;;;;;14.95;6.90;;;;;;;;;;4923761;29;20044;-70
2021/04/28 04:43:44;;;;;;;9.07;6.10;;;;;;;;;;4923003;29;20048;-70
2021/04/28 04:46:10;;;;;;;13.60;7.30;;;;;;;;;;4920312;29;20079;-69
2021/04/28 04:48:36;;;;;;;12.50;6.60;;;;;;;;;;4923356;29;20079;-69
2021/04/28 04:51:02;;;;;;;8.63;6.85;;;;;;;;;;4922937;29;20080;-69
2021/04/28 04:53:28;;;;;;;13.55;9.38;;;;;;;;;;4922620;29;20075;-69
2021/04/28 04:55:55;;;;;;;11.60;7.95;;;;;;;;;;4920396;29;20103;-69
2021/04/28 04:58:21;;;;;;;13.73;8.45;;;;;;;;;;4923679;29;20048;-69
2021/04/28 05:00:47;;;;;;;14.48;8.85;;;;;;;;;;4923344;29;20105;-69
2021/04/28 05:03:13;;;;;;;17.88;11.10;;;;;;;;;;4922755;29;20052;-70
2021/04/28 05:05:39;;;;;;;17.45;10.82;;;;;;;;;;4920317;29;20052;-69
2021/04/28 05:08:05;;;;;;;16.55;10.73;;;;;;;;;;4923472;29;20047;-69
2021/04/28 05:10:31;;;;;;;19.23;10.75;;;;;;;;;;4903767;29;20048;-69
2021/04/28 05:12:58;;;;;;;20.30;10.88;;;;;;;;;;4922157;29;20139;-69
2021/04/28 05:15:24;;;;;;;15.05;10.25;;;;;;;;;;4920728;29;20489;-70
2021/04/28 05:17:50;;;;;;;12.45;8.02;;;;;;;;;;4922955;29;20470;-70
2021/04/28 05:20:17;;;;;;;13.95;7.82;;;;;;;;;;4928684;29;20143;-69
2021/04/28 05:22:43;;;;;;;19.80;8.30;;;;;;;;;;4924923;29;20501;-69
2021/04/28 05:25:12;;;;;;;16.30;7.50;;;;;;;;;;4925549;29;20043;-69
2021/04/28 05:27:38;;;;;;;22.20;9.60;;;;;;;;;;4924387;29;20100;-69
2021/04/28 05:30:06;;;;;;;13.68;8.10;;;;;;;;;;4926124;29;20044;-70
2021/04/28 05:32:32;;;;;;;15.07;7.57;;;;;;;;;;4925816;29;20059;-69
2021/04/28 05:34:58;;;;;;;12.82;8.63;;;;;;;;;;4926380;29;20079;-69
2021/04/28 05:37:24;;;;;;;13.18;8.20;;;;;;;;;;4923547;29;20075;-70
2021/04/28 05:39:51;;;;;;;14.20;7.57;;;;;;;;;;4925912;29;20048;-70
2021/04/28 05:42:17;;;;;;;16.10;7.65;;;;;;;;;;4924191;29;20100;-70
2021/04/28 05:44:44;;;;;;;23.60;8.00;;;;;;;;;;4925714;29;20055;-69
2021/04/28 05:47:11;;;;;;;13.35;8.50;;;;;;;;;;4923444;29;20079;-69
2021/04/28 05:49:37;;;;;;;17.15;8.95;;;;;;;;;;4926318;29;20044;-70
2021/04/28 05:52:04;;;;;;;18.05;8.15;;;;;;;;;;4924435;29;20111;-70
2021/04/28 05:54:30;;;;;;;13.90;8.93;;;;;;;;;;4929030;29;20414;-70
2021/04/28 05:56:56;;;;;;;18.95;9.45;;;;;;;;;;4923784;29;20107;-70
2021/04/28 05:59:23;;;;;;;16.13;8.98;;;;;;;;;;4925188;29;20102;-70
2021/04/28 06:01:49;;;;;;;16.17;10.23;;;;;;;;;;4924514;29;20533;-68
2021/04/28 06:04:16;;;;;;;15.25;9.50;;;;;;;;;;4924472;29;20095;-68
2021/04/28 06:06:45;;;;;;;17.83;8.77;;;;;;;;;;4924352;29;20051;-70
2021/04/28 06:09:11;;;;;;;16.42;10.13;;;;;;;;;;4924216;29;20127;-70
2021/04/28 06:11:37;;;;;;;18.52;9.68;;;;;;;;;;4926006;29;20518;-70
2021/04/28 06:14:04;;;;;;;17.50;9.80;;;;;;;;;;4923915;29;20051;-70
2021/04/28 06:16:30;;;;;;;16.27;10.43;;;;;;;;;;4927201;29;20119;-70
2021/04/28 06:18:56;;;;;;;14.48;9.48;;;;;;;;;;4926562;29;20064;-69
2021/04/28 06:21:22;;;;;;;13.18;8.52;;;;;;;;;;4925614;29;20051;-70
2021/04/28 06:23:48;;;;;;;17.00;9.00;;;;;;;;;;4923327;29;20048;-69
2021/04/28 06:26:16;;;;;;;13.25;8.40;;;;;;;;;;4921486;29;20056;-70
2021/04/28 06:28:42;;;;;;;12.18;8.45;;;;;;;;;;4921557;29;20048;-70
2021/04/28 06:31:09;;;;;;;12.52;8.23;;;;;;;;;;4925483;29;20047;-70
2021/04/28 06:33:36;;;;;;;14.30;8.52;;;;;;;;;;4921404;29;20067;-70
2021/04/28 06:36:02;;;;;;;15.65;9.43;;;;;;;;;;4922659;29;20083;-70
2021/04/28 06:38:28;;;;;;;14.60;9.13;;;;;;;;;;4922116;29;20055;-70
2021/04/28 06:40:54;;;;;;;14.65;8.90;;;;;;;;;;4922795;29;20491;-70
2021/04/28 06:43:20;;;;;;;17.05;10.93;;;;;;;;;;4933111;29;20113;-70
2021/04/28 06:46:03;;;;;;;17.83;9.18;;;;;;;;;;4953739;29;20133;-70
2021/04/28 06:48:29;;;;;;;15.68;9.20;;;;;;;;;;4954093;29;20497;-70
2021/04/28 06:50:56;;;;;;;15.48;9.02;;;;;;;;;;4953336;28;20057;-70
2021/04/28 06:53:22;;;;;;;16.08;9.07;;;;;;;;;;4953929;29;20068;-70
2021/04/28 06:55:48;;;;;;;17.95;9.45;;;;;;;;;;4953556;29;20051;-70
2021/04/28 06:58:16;;;;;;;17.45;9.05;;;;;;;;;;4939286;29;20495;-71
2021/04/28 07:00:42;;;;;;;14.60;8.77;;;;;;;;;;4934697;29;20047;-70
2021/04/28 07:03:08;;;;;;;16.75;9.00;;;;;;;;;;4934655;29;20051;-70
2021/04/28 07:05:34;;;;;;;13.18;9.30;;;;;;;;;;4933443;29;20535;-69
2021/04/28 07:08:00;;;;;;;13.38;7.90;;;;;;;;;;4934733;29;20063;-70
2021/04/28 07:10:26;;;;;;;13.38;9.20;;;;;;;;;;4920776;29;20523;-73
2021/04/28 07:12:53;;;;;;;12.82;9.32;;;;;;;;;;4930979;29;20055;-70
2021/04/28 07:15:19;;;;;;;11.50;8.77;;;;;;;;;;4926435;29;20050;-71
2021/04/28 07:17:46;;;;;;;12.32;8.60;;;;;;;;;;4926492;29;20066;-70
2021/04/28 07:20:13;;;;;;;11.25;8.60;;;;;;;;;;4923416;29;20502;-71
2021/04/28 07:22:40;;;;;;;12.57;8.40;;;;;;;;;;4925056;29;20198;-73
2021/04/28 07:25:06;;;;;;;15.48;8.70;;;;;;;;;;4927286;29;20067;-70
2021/04/28 07:27:32;;;;;;;12.55;8.45;;;;;;;;;;4924508;29;20608;-73
2021/04/28 07:29:59;;;;;;;13.63;8.10;;;;;;;;;;4905794;29;20100;-72
2021/04/28 07:32:25;;;;;;;16.70;8.25;;;;;;;;;;4926716;29;20564;-70
2021/04/28 07:34:51;;;;;;;12.90;8.27;;;;;;;;;;4928339;29;20047;-70
2021/04/28 07:37:18;;;;;;;14.07;8.40;;;;;;;;;;4923625;29;20190;-70
2021/04/28 07:39:44;;;;;;;12.80;9.13;;;;;;;;;;4926357;29;20502;-70
2021/04/28 07:42:10;;;;;;;13.52;9.20;;;;;;;;;;4926679;29;20057;-71
2021/04/28 07:44:36;;;;;;;15.85;8.38;;;;;;;;;;4917839;29;20502;-73
2021/04/28 07:47:02;;;;;;;14.40;8.82;;;;;;;;;;4926545;29;20111;-72
2021/04/28 07:49:29;;;;;;;14.55;9.05;;;;;;;;;;4922701;29;20125;-73
2021/04/28 07:51:55;;;;;;;17.38;9.00;;;;;;;;;;4921885;29;20048;-72
2021/04/28 07:54:22;;;;;;;11.38;8.80;;;;;;;;;;4924344;29;20186;-72
2021/04/28 07:56:48;;;;;;;14.25;8.50;;;;;;;;;;4924198;29;20051;-73
2021/04/28 07:59:15;;;;;;;10.93;8.07;;;;;;;;;;4921400;29;20056;-68
2021/04/28 08:01:41;;;;;;;12.82;8.52;;;;;;;;;;4924751;29;20376;-73
2021/04/28 08:04:07;;;;;;;15.35;8.77;;;;;;;;;;4920923;29;20479;-73
2021/04/28 08:06:34;;;;;;;12.45;7.97;;;;;;;;;;4905678;29;20570;-69
2021/04/28 08:09:01;;;;;;;16.58;9.02;;;;;;;;;;4921552;29;20525;-70
2021/04/28 08:11:28;;;;;;;15.48;9.50;;;;;;;;;;4916732;29;20104;-70
2021/04/28 08:13:54;;;;;;;13.15;8.75;;;;;;;;;;4923306;29;20451;-70
2021/04/28 08:16:20;;;;;;;16.13;9.05;;;;;;;;;;4920422;29;20083;-70
2021/04/28 08:18:48;;;;;;;15.73;10.05;;;;;;;;;;4921347;29;20096;-70
2021/04/28 08:21:14;;;;;;;20.52;9.82;;;;;;;;;;4935808;29;20064;-70
2021/04/28 08:23:43;;;;;;;14.00;8.77;;;;;;;;;;4921585;29;20514;-70
2021/04/28 08:26:10;;;;;;;16.00;8.43;;;;;;;;;;4921693;29;20066;-70
2021/04/28 08:28:40;;;;;;;12.32;8.75;;;;;;;;;;4925354;29;20052;-70
2021/04/28 08:31:14;;;;;;;14.52;8.35;;;;;;;;;;4921067;29;20146;-70
2021/04/28 08:33:41;;;;;;;13.63;9.60;;;;;;;;;;4922922;29;20055;-70
2021/04/28 08:36:08;;;;;;;11.32;7.95;;;;;;;;;;4935297;29;20566;-70
2021/04/28 08:38:37;;;;;;;13.82;8.90;;;;;;;;;;4921358;29;20055;-71
2021/04/28 08:41:05;;;;;;;14.43;9.18;;;;;;;;;;4921561;29;20534;-71
2021/04/28 08:43:32;;;;;;;13.05;9.38;;;;;;;;;;4923406;29;20060;-70
2021/04/28 08:46:00;;;;;;;14.65;8.88;;;;;;;;;;4924353;29;20534;-71
2021/04/28 08:48:26;;;;;;;14.45;9.48;;;;;;;;;;4919119;29;20555;-70
2021/04/28 08:50:52;;;;;;;12.77;8.90;;;;;;;;;;4923699;29;20119;-70
2021/04/28 08:53:18;;;;;;;14.00;8.55;;;;;;;;;;4912527;29;20079;-70
2021/04/28 08:55:44;;;;;;;14.23;9.55;;;;;;;;;;4921239;29;20131;-70
2021/04/28 08:58:12;;;;;;;14.93;9.93;;;;;;;;;;4919587;29;20091;-70
2021/04/28 09:00:38;;;;;;;17.13;9.68;;;;;;;;;;4925544;29;20130;-71
2021/04/28 09:03:04;;;;;;;12.57;8.02;;;;;;;;;;4922199;29;20518;-70
2021/04/28 09:05:34;;;;;;;14.90;9.25;;;;;;;;;;4920974;29;20055;-70
2021/04/28 09:08:01;;;;;;;16.33;10.05;;;;;;;;;;4919688;29;20115;-71
2021/04/28 09:10:29;;;;;;;14.55;9.70;;;;;;;;;;4935315;29;20135;-69
2021/04/28 09:12:55;;;;;;;14.02;9.02;;;;;;;;;;4924018;29;20119;-70
2021/04/28 09:15:44;;;;;;;14.90;9.80;;;;;;;;;;4920019;29;20445;-68
2021/04/28 09:18:12;;;;;;;14.45;9.50;;;;;;;;;;4922590;29;20125;-67
2021/04/28 09:20:45;;;;;;;14.70;10.40;;;;;;;;;;4920881;29;20427;-67
2021/04/28 09:23:15;;;;;;;17.15;10.25;;;;;;;;;;4919559;29;20048;-68
2021/04/28 09:25:46;;;;;;;14.55;9.70;;;;;;;;;;4921398;29;20063;-69
2021/04/28 09:28:26;;;;;;;15.13;8.95;;;;;;;;;;4919743;29;20079;-70
2021/04/28 09:31:08;;;;;;;17.25;10.10;;;;;;;;;;4922583;29;20084;-68
2021/04/28 09:33:40;;;;;;;15.85;10.13;;;;;;;;;;4923532;29;20056;-69
2021/04/28 09:36:11;;;;;;;17.45;10.10;;;;;;;;;;4918997;29;20064;-70
2021/04/28 09:38:50;;;;;;;16.95;9.88;;;;;;;;;;4920117;29;20080;-70
2021/04/28 09:41:32;;;;;;;17.52;11.50;;;;;;;;;;4923921;29;20309;-71
2021/04/28 09:44:01;;;;;;;15.27;10.95;;;;;;;;;;4921131;29;20140;-70
2021/04/28 09:46:29;;;;;;;18.23;10.18;;;;;;;;;;4918551;29;20055;-70
2021/04/28 09:49:06;;;;;;;17.23;11.07;;;;;;;;;;4920852;29;20060;-69
2021/04/28 09:51:34;;;;;;;18.50;9.70;;;;;;;;;;4919927;29;20055;-70
2021/04/28 09:54:13;;;;;;;17.73;8.90;;;;;;;;;;4921845;29;20047;-70
2021/04/28 09:56:43;;;;;;;14.27;9.68;;;;;;;;;;4920198;29;20404;-69
2021/04/28 09:59:10;;;;;;;12.60;8.50;;;;;;;;;;4919547;29;20056;-68
2021/04/28 10:01:40;;;;;;;13.60;8.77;;;;;;;;;;4921365;29;20490;-67
2021/04/28 10:04:08;;;;;;;12.57;8.82;;;;;;;;;;4919628;29;20083;-70
2021/04/28 10:06:48;;;;;;;13.45;8.77;;;;;;;;;;4920512;29;20056;-69
2021/04/28 10:09:27;;;;;;;13.48;9.00;;;;;;;;;;4922649;29;20527;-69
2021/04/28 10:11:54;;;;;;;17.35;10.10;;;;;;;;;;4924930;29;20150;-69
2021/04/28 10:14:20;;;;;;;13.80;9.48;;;;;;;;;;4923386;29;20090;-68
2021/04/28 10:16:47;;;;;;;14.98;8.23;;;;;;;;;;4914121;29;20067;-69
2021/04/28 10:19:17;;;;;;;12.57;8.68;;;;;;;;;;4920270;29;20502;-68
2021/04/28 10:21:43;;;;;;;12.57;9.10;;;;;;;;;;4917119;29;20502;-70
2021/04/28 10:24:09;;;;;;;11.38;8.40;;;;;;;;;;4918198;29;20162;-70
2021/04/28 10:26:36;;;;;;;10.50;8.00;;;;;;;;;;4924151;29;20048;-69
2021/04/28 10:29:03;;;;;;;11.18;8.35;;;;;;;;;;4919515;29;20122;-72
2021/04/28 10:31:29;;;;;;;11.40;7.60;;;;;;;;;;4917072;29;20099;-70
2021/04/28 10:33:56;;;;;;;13.23;7.95;;;;;;;;;;4897290;29;20066;-68
2021/04/28 10:36:44;;;;;;;13.50;8.25;;;;;;;;;;4915554;29;20139;-69
2021/04/28 10:39:10;;;;;;;11.27;7.78;;;;;;;;;;4924635;29;20044;-68
2021/04/28 10:41:41;;;;;;;10.10;7.10;;;;;;;;;;4917864;29;20056;-69
2021/04/28 10:44:30;;;;;;;13.20;7.38;;;;;;;;;;4923451;29;20420;-69
2021/04/28 10:47:21;;;;;;;11.95;8.00;;;;;;;;;;4922874;29;20059;-69
2021/04/28 10:50:06;;;;;;;14.00;9.07;;;;;;;;;;4926640;29;20052;-70
2021/04/28 10:52:40;;;;;;;14.55;8.52;;;;;;;;;;4922862;29;20079;-73
2021/04/28 10:55:46;;;;;;;10.38;7.28;;;;;;;;;;4918822;29;20598;-70
2021/04/28 10:58:34;;;;;;;10.95;7.13;;;;;;;;;;4921120;29;20059;-70
2021/04/28 11:01:07;;;;;;;14.85;7.57;;;;;;;;;;4921773;29;20155;-70
2021/04/28 11:03:49;;;;;;;15.30;8.65;;;;;;;;;;4924588;29;20047;-71
2021/04/28 11:06:28;;;;;;;10.80;7.00;;;;;;;;;;4923875;29;20059;-69
2021/04/28 11:08:57;;;;;;;10.23;7.85;;;;;;;;;;4921209;29;20048;-70
2021/04/28 11:11:29;;;;;;;12.98;8.13;;;;;;;;;;4922142;29;20455;-69
2021/04/28 11:14:11;;;;;;;9.77;7.60;;;;;;;;;;4926631;29;20052;-69
2021/04/28 11:17:03;;;;;;;13.63;7.05;;;;;;;;;;4922865;29;20455;-69
2021/04/28 11:19:38;;;;;;;9.02;6.30;;;;;;;;;;4922182;29;20507;-72
2021/04/28 11:22:07;;;;;;;10.27;6.88;;;;;;;;;;4924482;29;20058;-70
2021/04/28 11:24:59;;;;;;;10.80;6.88;;;;;;;;;;4923464;29;20047;-71
2021/04/28 11:27:47;;;;;;;13.60;7.80;;;;;;;;;;4922060;29;20048;-69
2021/04/28 11:30:22;;;;;;;10.00;7.00;;;;;;;;;;4928402;29;20044;-70
2021/04/28 11:33:11;;;;;;;10.13;7.03;;;;;;;;;;4926948;28;20044;-71
2021/04/28 11:35:42;;;;;;;10.60;6.68;;;;;;;;;;4931318;29;20047;-74
2021/04/28 11:38:16;;;;;;;10.77;6.53;;;;;;;;;;4926634;29;20475;-71
2021/04/28 11:40:49;;;;;;;9.85;5.95;;;;;;;;;;4921744;29;20100;-70
2021/04/28 11:43:23;;;;;;;10.00;6.35;;;;;;;;;;4923981;29;20479;-70
2021/04/28 11:45:54;;;;;;;6.57;5.38;;;;;;;;;;4922299;29;20052;-71
2021/04/28 11:48:24;;;;;;;10.05;6.25;;;;;;;;;;4922243;29;20479;-71
2021/04/28 11:50:53;;;;;;;11.82;5.32;;;;;;;;;;4924454;29;20510;-71
2021/04/28 11:53:19;;;;;;;8.50;5.78;;;;;;;;;;4921019;29;20116;-71
2021/04/28 11:55:46;;;;;;;10.65;5.97;;;;;;;;;;4925757;29;20060;-70
2021/04/28 11:58:34;;;;;;;8.43;6.03;;;;;;;;;;4914522;29;20126;-71
2021/04/28 12:01:08;;;;;;;8.77;6.10;;;;;;;;;;4920722;29;20048;-71
2021/04/28 12:03:56;;;;;;;8.88;6.07;;;;;;;;;;4924247;29;20063;-70
2021/04/28 12:06:30;;;;;;;8.23;5.63;;;;;;;;;;4927711;29;20047;-71
2021/04/28 12:09:12;;;;;;;8.65;5.57;;;;;;;;;;4953406;28;20051;-72
2021/04/28 12:11:40;;;;;;;8.07;5.70;;;;;;;;;;4952324;29;20051;-71
2021/04/28 12:14:06;;;;;;;6.90;5.07;;;;;;;;;;4950332;29;20055;-71
2021/04/28 12:16:53;;;;;;;7.82;5.50;;;;;;;;;;4950149;29;20059;-71
2021/04/28 12:19:20;;;;;;;7.40;5.47;;;;;;;;;;4932908;29;20458;-72
2021/04/28 12:21:51;;;;;;;7.85;5.82;;;;;;;;;;4934415;29;20055;-71
2021/04/28 12:24:34;;;;;;;7.47;5.38;;;;;;;;;;4932828;29;20048;-71
2021/04/28 12:27:09;;;;;;;6.57;5.18;;;;;;;;;;4916198;29;20138;-71
2021/04/28 12:29:38;;;;;;;7.95;5.57;;;;;;;;;;4934119;29;20058;-71
2021/04/28 12:32:06;;;;;;;7.65;4.65;;;;;;;;;;4917487;29;20107;-70
2021/04/28 12:34:32;;;;;;;8.70;5.55;;;;;;;;;;4934132;29;20135;-69
2021/04/28 12:37:27;;;;;;;9.05;5.43;;;;;;;;;;4933306;29;20087;-70
2021/04/28 12:39:56;;;;;;;9.57;5.40;;;;;;;;;;4910271;29;20052;-69
2021/04/28 12:42:26;;;;;;;7.85;5.50;;;;;;;;;;4924759;29;20055;-70
2021/04/28 12:44:52;;;;;;;7.80;5.47;;;;;;;;;;4926549;29;20098;-71
2021/04/28 12:47:26;;;;;;;11.80;5.07;;;;;;;;;;4919199;29;20503;-70
2021/04/28 12:49:54;;;;;;;7.90;5.32;;;;;;;;;;4920179;29;20522;-72
2021/04/28 12:52:21;;;;;;;5.70;4.55;;;;;;;;;;4915292;29;20083;-68
2021/04/28 12:54:47;;;;;;;4.82;4.25;;;;;;;;;;4922174;29;20127;-71
2021/04/28 12:57:23;;;;;;;6.22;4.35;;;;;;;;;;4919710;29;20052;-71
2021/04/28 13:00:07;;;;;;;7.07;4.95;;;;;;;;;;4912895;29;20043;-71
2021/04/28 13:02:33;;;;;;;5.05;4.40;;;;;;;;;;4920693;29;20076;-71
2021/04/28 13:04:59;;;;;;;6.90;4.78;;;;;;;;;;4923516;29;20573;-71
2021/04/28 13:07:25;;;;;;;7.82;4.78;;;;;;;;;;4919761;29;20056;-72
2021/04/28 13:09:52;;;;;;;5.93;4.30;;;;;;;;;;4921995;29;20052;-71
2021/04/28 13:12:35;;;;;;;5.95;3.70;;;;;;;;;;4921079;29;20079;-71
2021/04/28 13:15:05;;;;;;;7.65;4.63;;;;;;;;;;4920867;29;20052;-71
2021/04/28 13:18:08;;;;;;;6.28;4.50;;;;;;;;;;4921563;29;20110;-71
2021/04/28 13:20:35;;;;;;;6.63;5.28;;;;;;;;;;4923440;29;20130;-71
2021/04/28 13:23:15;;;;;;;5.25;4.50;;;;;;;;;;4921657;29;20502;-71
2021/04/28 13:25:55;;;;;;;5.57;4.20;;;;;;;;;;4919774;29;20064;-71
2021/04/28 13:28:31;;;;;;;5.72;4.57;;;;;;;;;;4923162;29;20052;-71
2021/04/28 13:31:23;;;;;;;7.38;4.53;;;;;;;;;;4923042;29;20047;-71
2021/04/28 13:33:51;;;;;;;9.50;4.93;;;;;;;;;;4922913;29;20048;-71
2021/04/28 13:36:26;;;;;;;8.73;5.25;;;;;;;;;;4919539;29;20475;-71
2021/04/28 13:38:54;;;;;;;6.38;4.57;;;;;;;;;;4922701;29;20052;-71
2021/04/28 13:41:20;;;;;;;6.55;4.90;;;;;;;;;;4924743;29;20111;-71
2021/04/28 13:43:47;;;;;;;8.05;4.68;;;;;;;;;;4925036;29;20146;-71
2021/04/28 13:46:13;;;;;;;6.40;5.18;;;;;;;;;;4924097;29;20044;-71
2021/04/28 13:48:39;;;;;;;6.75;5.45;;;;;;;;;;4926632;29;20143;-71
2021/04/28 13:51:06;;;;;;;6.45;5.20;;;;;;;;;;4924812;29;20083;-71
2021/04/28 13:53:32;;;;;;;7.25;4.70;;;;;;;;;;4923974;29;20107;-71
2021/04/28 13:55:58;;;;;;;5.20;4.10;;;;;;;;;;4924581;29;20057;-71
2021/04/28 13:58:25;;;;;;;6.80;4.47;;;;;;;;;;4926716;29;20086;-71
2021/04/28 14:00:51;;;;;;;5.20;4.22;;;;;;;;;;4927866;29;20099;-71
2021/04/28 14:03:17;;;;;;;7.93;4.97;;;;;;;;;;4923135;29;20112;-71
2021/04/28 14:05:43;;;;;;;9.20;5.03;;;;;;;;;;4927119;29;20088;-71
2021/04/28 14:08:10;;;;;;;6.70;5.43;;;;;;;;;;4923111;29;20093;-71
2021/04/28 14:10:36;;;;;;;5.45;4.13;;;;;;;;;;4908945;29;20056;-71
2021/04/28 14:13:02;;;;;;;8.63;4.88;;;;;;;;;;4924024;29;20135;-71
2021/04/28 14:15:28;;;;;;;7.53;4.72;;;;;;;;;;4923973;29;20056;-71
2021/04/28 14:17:54;;;;;;;7.95;4.82;;;;;;;;;;4926103;29;20099;-71
2021/04/28 14:20:20;;;;;;;7.82;5.13;;;;;;;;;;4924844;29;20047;-71
2021/04/28 14:22:46;;;;;;;7.07;4.43;;;;;;;;;;4923625;29;20052;-71
2021/04/28 14:25:13;;;;;;;8.70;4.90;;;;;;;;;;4924690;29;20107;-71
2021/04/28 14:27:39;;;;;;;7.28;4.40;;;;;;;;;;4925154;29;20064;-71
2021/04/28 14:30:06;;;;;;;6.75;4.57;;;;;;;;;;4925111;29;20048;-71
2021/04/28 14:32:32;;;;;;;5.28;4.78;;;;;;;;;;4923479;29;20060;-71
2021/04/28 14:35:01;;;;;;;7.78;5.03;;;;;;;;;;4919530;29;20055;-71
2021/04/28 14:37:29;;;;;;;9.23;5.30;;;;;;;;;;4924187;29;20056;-71
2021/04/28 14:39:55;;;;;;;6.55;5.50;;;;;;;;;;4923621;29;20060;-71
2021/04/28 14:42:21;;;;;;;7.22;5.00;;;;;;;;;;4924359;29;20055;-71
2021/04/28 14:44:47;;;;;;;7.25;4.63;;;;;;;;;;4923334;29;20111;-71
2021/04/28 14:47:14;;;;;;;7.35;5.30;;;;;;;;;;4923675;29;20131;-71